createdAt,value
2022-12-27T00:01:19.983Z,1.07
2022-12-27T00:03:47.284Z,0.90
2022-12-27T00:06:16.410Z,0.83
2022-12-27T00:08:44.114Z,0.80
2022-12-27T00:11:12.557Z,1.00
2022-12-27T00:13:40.114Z,1.07
2022-12-27T00:16:09.017Z,1.00
2022-12-27T00:18:36.848Z,0.80
2022-12-27T00:21:04.736Z,0.87
2022-12-27T00:23:33.546Z,1.43
2022-12-27T00:26:01.982Z,1.43
2022-12-27T00:28:33.143Z,0.90
2022-12-27T00:31:00.900Z,0.90
2022-12-27T00:33:29.475Z,0.93
2022-12-27T00:35:58.993Z,1.10
2022-12-27T00:38:26.587Z,0.90
2022-12-27T00:40:53.888Z,1.00
2022-12-27T00:43:21.162Z,0.80
2022-12-27T00:45:48.503Z,1.30
2022-12-27T00:48:15.792Z,1.17
2022-12-27T00:50:44.446Z,1.00
2022-12-27T00:53:12.381Z,1.00
2022-12-27T00:55:42.632Z,1.00
2022-12-27T00:58:10.214Z,0.93
2022-12-27T01:00:37.516Z,0.80
2022-12-27T01:03:04.853Z,0.90
2022-12-27T01:05:32.300Z,0.80
2022-12-27T01:07:59.588Z,0.80
2022-12-27T01:10:26.933Z,0.90
2022-12-27T01:12:54.478Z,0.70
2022-12-27T01:15:21.878Z,1.20
2022-12-27T01:17:49.274Z,0.80
2022-12-27T01:20:16.592Z,0.80
2022-12-27T01:22:43.844Z,0.80
2022-12-27T01:25:11.189Z,1.00
2022-12-27T01:27:38.439Z,0.80
2022-12-27T01:30:06.787Z,0.90
2022-12-27T01:32:34.481Z,0.80
2022-12-27T01:35:01.945Z,0.90
2022-12-27T01:37:29.745Z,0.80
2022-12-27T01:39:57.752Z,0.80
2022-12-27T01:42:43.624Z,0.80
2022-12-27T01:45:14.509Z,0.80
2022-12-27T01:47:51.440Z,1.00
2022-12-27T01:50:37.003Z,1.10
2022-12-27T01:53:20.799Z,1.00
2022-12-27T01:55:49.940Z,0.80
2022-12-27T01:58:26.354Z,1.00
2022-12-27T02:00:54.162Z,0.87
2022-12-27T02:03:24.693Z,0.70
2022-12-27T02:05:52.459Z,1.07
2022-12-27T02:08:38.609Z,0.90
2022-12-27T02:11:06.863Z,0.83
2022-12-27T02:13:35.581Z,1.03
2022-12-27T02:16:02.915Z,0.80
2022-12-27T02:18:30.326Z,1.00
2022-12-27T02:21:00.688Z,0.80
2022-12-27T02:24:06.933Z,0.97
2022-12-27T02:26:54.192Z,0.90
2022-12-27T02:29:33.133Z,1.23
2022-12-27T02:32:06.389Z,0.80
2022-12-27T02:34:52.511Z,1.47
2022-12-27T02:37:20.600Z,1.47
2022-12-27T02:39:48.956Z,0.90
2022-12-27T02:42:35.919Z,0.90
2022-12-27T02:45:22.806Z,0.97
2022-12-27T02:48:09.856Z,1.10
2022-12-27T02:51:11.848Z,0.80
2022-12-27T02:53:39.081Z,0.80
2022-12-27T02:56:34.677Z,1.17
2022-12-27T02:59:23.947Z,0.90
2022-12-27T03:02:28.322Z,1.20
2022-12-27T03:05:08.012Z,1.13
2022-12-27T03:07:54.319Z,0.90
2022-12-27T03:10:55.579Z,0.97
2022-12-27T03:14:00.595Z,0.90
2022-12-27T03:16:32.335Z,0.90
2022-12-27T03:19:44.509Z,0.90
2022-12-27T03:22:30.708Z,1.30
2022-12-27T03:25:17.202Z,1.07
2022-12-27T03:27:45.527Z,0.90
2022-12-27T03:30:31.734Z,1.10
2022-12-27T03:33:13.015Z,1.10
2022-12-27T03:36:18.864Z,1.60
2022-12-27T03:39:12.681Z,1.17
2022-12-27T03:42:01.709Z,0.90
2022-12-27T03:44:29.183Z,1.20
2022-12-27T03:46:58.181Z,0.80
2022-12-27T03:49:31.373Z,0.90
2022-12-27T03:52:17.654Z,0.83
2022-12-27T03:54:46.440Z,0.90
2022-12-27T03:57:18.926Z,0.90
2022-12-27T03:59:46.572Z,1.13
2022-12-27T04:02:13.996Z,0.83
2022-12-27T04:04:41.607Z,1.00
2022-12-27T04:07:09.204Z,0.80
2022-12-27T04:09:55.070Z,0.90
2022-12-27T04:12:40.940Z,0.90
2022-12-27T04:15:27.662Z,0.77
2022-12-27T04:18:13.486Z,1.00
2022-12-27T04:21:00.230Z,0.93
2022-12-27T04:23:46.220Z,0.90
2022-12-27T04:26:32.113Z,1.00
2022-12-27T04:29:18.167Z,0.97
2022-12-27T04:32:03.906Z,0.90
2022-12-27T04:34:41.636Z,0.83
2022-12-27T04:37:09.719Z,0.90
2022-12-27T04:39:37.056Z,1.00
2022-12-27T04:42:22.975Z,1.40
2022-12-27T04:45:14.858Z,0.80
2022-12-27T04:48:01.488Z,0.80
2022-12-27T04:50:48.900Z,0.90
2022-12-27T04:53:36.895Z,0.90
2022-12-27T04:56:04.298Z,0.90
2022-12-27T04:58:31.650Z,1.00
2022-12-27T05:01:19.232Z,0.90
2022-12-27T05:03:47.432Z,1.00
2022-12-27T05:06:15.092Z,0.90
2022-12-27T05:09:01.093Z,1.00
2022-12-27T05:11:46.930Z,1.00
2022-12-27T05:14:15.143Z,1.10
2022-12-27T05:16:43.804Z,0.90
2022-12-27T05:19:12.405Z,1.63
2022-12-27T05:22:01.571Z,0.90
2022-12-27T05:24:49.210Z,1.17
2022-12-27T05:27:16.797Z,1.10
2022-12-27T05:29:44.253Z,0.90
2022-12-27T05:32:13.650Z,0.97
2022-12-27T05:34:41.444Z,1.20
2022-12-27T05:37:08.916Z,1.13
2022-12-27T05:39:36.283Z,1.37
2022-12-27T05:42:03.728Z,0.90
2022-12-27T05:44:31.155Z,1.10
2022-12-27T05:46:58.520Z,1.10
2022-12-27T05:49:25.934Z,1.00
2022-12-27T05:51:53.230Z,1.00
2022-12-27T05:54:20.553Z,1.27
2022-12-27T05:56:47.859Z,1.30
2022-12-27T05:59:15.207Z,0.90
2022-12-27T06:01:42.723Z,1.10
2022-12-27T06:04:10.763Z,0.90
2022-12-27T06:06:38.057Z,1.27
2022-12-27T06:09:05.385Z,1.10
2022-12-27T06:11:32.659Z,1.00
2022-12-27T06:14:00.003Z,0.90
2022-12-27T06:16:27.388Z,0.90
2022-12-27T06:18:54.676Z,1.03
2022-12-27T06:21:22.654Z,0.97
2022-12-27T06:23:50.324Z,0.97
2022-12-27T06:26:18.945Z,1.20
2022-12-27T06:28:47.070Z,0.90
2022-12-27T06:31:14.513Z,1.27
2022-12-27T06:33:41.867Z,1.00
2022-12-27T06:36:10.176Z,0.90
2022-12-27T06:38:38.023Z,1.10
2022-12-27T06:41:06.849Z,1.10
2022-12-27T06:43:34.612Z,0.90
2022-12-27T06:46:03.298Z,1.10
2022-12-27T06:48:30.848Z,1.03
2022-12-27T06:50:58.207Z,1.10
2022-12-27T06:53:25.522Z,0.97
2022-12-27T06:55:52.850Z,0.90
2022-12-27T06:58:20.170Z,1.00
2022-12-27T07:00:47.575Z,0.90
2022-12-27T07:03:15.000Z,0.80
2022-12-27T07:05:42.291Z,0.80
2022-12-27T07:08:09.636Z,0.90
2022-12-27T07:10:37.439Z,0.87
2022-12-27T07:13:04.759Z,0.90
2022-12-27T07:15:32.158Z,1.00
2022-12-27T07:18:00.327Z,0.93
2022-12-27T07:20:27.602Z,0.70
2022-12-27T07:22:54.944Z,0.90
2022-12-27T07:25:22.244Z,1.03
2022-12-27T07:27:49.525Z,1.00
2022-12-27T07:30:17.305Z,0.90
2022-12-27T07:32:44.663Z,0.83
2022-12-27T07:35:12.026Z,0.90
2022-12-27T07:37:39.354Z,1.20
2022-12-27T07:40:07.007Z,1.03
2022-12-27T07:42:34.310Z,0.90
2022-12-27T07:45:01.613Z,0.80
2022-12-27T07:47:28.928Z,0.97
2022-12-27T07:49:56.233Z,0.70
2022-12-27T07:52:23.514Z,0.80
2022-12-27T07:54:51.030Z,1.10
2022-12-27T07:57:18.310Z,0.90
2022-12-27T07:59:45.657Z,0.90
2022-12-27T08:02:13.856Z,1.53
2022-12-27T08:04:41.244Z,0.90
2022-12-27T08:07:08.531Z,0.80
2022-12-27T08:09:38.354Z,1.10
2022-12-27T08:12:05.929Z,1.10
2022-12-27T08:14:33.216Z,1.00
2022-12-27T08:17:04.522Z,1.00
2022-12-27T08:19:31.945Z,1.10
2022-12-27T08:21:59.235Z,1.07
2022-12-27T08:24:26.577Z,0.90
2022-12-27T08:26:53.943Z,0.97
2022-12-27T08:29:21.255Z,0.90
2022-12-27T08:31:48.714Z,1.00
2022-12-27T08:34:16.571Z,0.90
2022-12-27T08:36:59.289Z,0.90
2022-12-27T08:39:27.957Z,0.90
2022-12-27T08:41:55.245Z,0.90
2022-12-27T08:44:23.753Z,0.90
2022-12-27T08:46:51.187Z,1.00
2022-12-27T08:49:19.449Z,0.90
2022-12-27T08:51:46.784Z,1.00
2022-12-27T08:54:14.285Z,1.00
2022-12-27T08:56:41.602Z,0.97
2022-12-27T08:59:08.903Z,0.90
2022-12-27T09:01:36.534Z,0.93
2022-12-27T09:04:04.361Z,1.00
2022-12-27T09:06:31.793Z,0.90
2022-12-27T09:08:59.893Z,0.90
2022-12-27T09:11:28.193Z,1.00
2022-12-27T09:13:55.846Z,1.10
2022-12-27T09:16:24.631Z,0.97
2022-12-27T09:18:52.995Z,0.80
2022-12-27T09:21:21.215Z,1.10
2022-12-27T09:23:49.181Z,1.10
2022-12-27T09:26:20.806Z,1.10
2022-12-27T09:28:48.858Z,0.90
2022-12-27T09:31:17.049Z,1.10
2022-12-27T09:33:44.538Z,0.90
2022-12-27T09:36:16.775Z,1.40
2022-12-27T09:38:44.197Z,1.07
2022-12-27T09:42:25.123Z,0.97
2022-12-27T09:44:16.526Z,1.03
2022-12-27T09:47:05.350Z,1.00
2022-12-27T09:49:38.561Z,1.20
2022-12-27T09:52:08.585Z,1.10
2022-12-27T09:54:38.901Z,1.20
2022-12-27T09:57:22.075Z,1.20
2022-12-27T09:59:50.699Z,0.90
2022-12-27T10:02:21.259Z,1.00
2022-12-27T10:07:51.732Z,1.00
2022-12-27T10:10:28.079Z,1.17
2022-12-27T10:13:02.179Z,1.10
2022-12-27T10:15:48.164Z,1.00
2022-12-27T10:18:30.870Z,1.10
2022-12-27T10:21:07.473Z,0.90
2022-12-27T10:23:36.718Z,0.97
2022-12-27T10:26:08.183Z,1.13
2022-12-27T10:28:43.298Z,1.30
2022-12-27T10:31:15.805Z,1.30
2022-12-27T10:33:44.284Z,0.90
2022-12-27T10:36:16.083Z,1.00
2022-12-27T10:38:43.605Z,1.30
2022-12-27T10:41:17.002Z,1.20
2022-12-27T10:43:47.292Z,1.00
2022-12-27T10:46:16.847Z,1.03
2022-12-27T10:51:49.218Z,1.10
2022-12-27T10:54:25.759Z,1.30
2022-12-27T10:56:53.578Z,1.10
2022-12-27T10:59:22.333Z,1.30
2022-12-27T11:01:53.380Z,1.30
2022-12-27T11:04:21.665Z,0.97
2022-12-27T11:07:04.652Z,1.10
2022-12-27T11:09:36.370Z,1.00
2022-12-27T11:12:16.032Z,1.40
2022-12-27T11:14:55.774Z,1.17
2022-12-27T11:17:34.549Z,1.20
2022-12-27T11:20:09.525Z,1.07
2022-12-27T11:22:43.726Z,1.40
2022-12-27T11:25:13.785Z,1.20
2022-12-27T11:27:45.798Z,1.10
2022-12-27T11:30:23.812Z,1.07
2022-12-27T11:32:52.163Z,1.03
2022-12-27T11:35:20.701Z,1.30
2022-12-27T11:37:49.426Z,1.00
2022-12-27T11:40:34.506Z,1.13
2022-12-27T11:43:08.790Z,1.10
2022-12-27T11:45:40.032Z,1.33
2022-12-27T11:48:19.981Z,1.00
2022-12-27T11:51:11.226Z,1.27
2022-12-27T11:53:56.504Z,1.33
2022-12-27T11:56:27.115Z,0.93
2022-12-27T11:58:54.395Z,1.60
2022-12-27T12:01:37.561Z,1.20
2022-12-27T12:04:08.179Z,1.37
2022-12-27T12:06:54.393Z,1.00
2022-12-27T12:09:26.851Z,1.27
2022-12-27T12:12:20.669Z,1.30
2022-12-27T12:14:58.638Z,1.10
2022-12-27T12:17:36.395Z,1.27
2022-12-27T12:20:06.909Z,1.30
2022-12-27T12:22:53.021Z,1.13
2022-12-27T12:25:30.394Z,1.20
2022-12-27T12:28:23.146Z,1.23
2022-12-27T12:31:12.921Z,1.10
2022-12-27T12:34:01.977Z,1.00
2022-12-27T12:36:52.687Z,1.03
2022-12-27T12:39:28.354Z,1.30
2022-12-27T12:42:00.464Z,1.20
2022-12-27T12:44:41.478Z,1.20
2022-12-27T12:47:25.385Z,1.17
2022-12-27T12:50:07.859Z,1.43
2022-12-27T12:52:48.664Z,1.33
2022-12-27T12:55:38.475Z,1.40
2022-12-27T12:58:06.208Z,1.20
2022-12-27T13:00:49.055Z,1.17
2022-12-27T13:03:32.040Z,1.10
2022-12-27T13:06:18.177Z,1.23
2022-12-27T13:08:48.631Z,1.03
2022-12-27T13:11:32.219Z,1.30
2022-12-27T13:13:59.640Z,1.40
2022-12-27T13:16:41.544Z,1.53
2022-12-27T13:19:31.388Z,1.40
2022-12-27T13:22:01.740Z,1.57
2022-12-27T13:24:42.720Z,1.33
2022-12-27T13:27:35.353Z,1.57
2022-12-27T13:30:22.939Z,1.60
2022-12-27T13:33:05.899Z,1.17
2022-12-27T13:35:51.667Z,1.20
2022-12-27T13:38:19.057Z,1.43
2022-12-27T13:41:05.350Z,1.63
2022-12-27T13:43:51.524Z,1.20
2022-12-27T13:46:42.418Z,1.10
2022-12-27T13:49:10.068Z,1.10
2022-12-27T13:51:44.750Z,1.57
2022-12-27T13:54:31.971Z,1.13
2022-12-27T13:57:05.344Z,0.90
2022-12-27T13:59:42.594Z,1.27
2022-12-27T14:02:23.947Z,1.40
2022-12-27T14:05:03.797Z,1.17
2022-12-27T14:07:34.299Z,1.40
2022-12-27T14:10:11.731Z,1.33
2022-12-27T14:12:48.545Z,1.10
2022-12-27T14:15:20.689Z,1.30
2022-12-27T14:17:57.207Z,1.47
2022-12-27T14:20:50.876Z,1.43
2022-12-27T14:23:27.278Z,1.00
2022-12-27T14:26:07.028Z,1.40
2022-12-27T14:28:59.962Z,1.00
2022-12-27T14:31:41.347Z,1.33
2022-12-27T14:34:27.689Z,1.07
2022-12-27T14:37:01.395Z,1.10
2022-12-27T14:39:47.518Z,1.30
2022-12-27T14:42:14.864Z,1.40
2022-12-27T14:45:00.968Z,1.33
2022-12-27T14:47:28.509Z,1.57
2022-12-27T14:50:05.082Z,1.20
2022-12-27T14:52:46.567Z,1.13
2022-12-27T14:55:37.224Z,1.37
2022-12-27T14:58:23.310Z,1.33
2022-12-27T15:00:54.530Z,1.27
2022-12-27T15:03:33.797Z,1.10
2022-12-27T15:06:24.274Z,1.30
2022-12-27T15:09:12.353Z,1.40
2022-12-27T15:11:54.235Z,1.33
2022-12-27T15:14:30.422Z,1.10
2022-12-27T15:17:03.833Z,1.37
2022-12-27T15:19:54.565Z,1.87
2022-12-27T15:22:21.937Z,1.43
2022-12-27T15:25:08.376Z,1.33
2022-12-27T15:27:42.512Z,1.40
2022-12-27T15:30:29.285Z,2.10
2022-12-27T15:33:03.019Z,1.57
2022-12-27T15:35:49.332Z,1.30
2022-12-27T15:38:36.616Z,1.57
2022-12-27T15:41:10.219Z,1.23
2022-12-27T15:43:37.618Z,1.43
2022-12-27T15:46:23.892Z,1.40
2022-12-27T15:48:57.551Z,1.70
2022-12-27T15:51:43.791Z,1.60
2022-12-27T15:54:17.298Z,1.60
2022-12-27T15:56:44.697Z,1.63
2022-12-27T15:59:30.775Z,1.80
2022-12-27T16:02:20.730Z,1.60
2022-12-27T16:04:53.045Z,1.40
2022-12-27T16:07:41.148Z,1.67
2022-12-27T16:10:27.637Z,1.60
2022-12-27T16:12:56.449Z,1.57
2022-12-27T16:15:43.511Z,1.80
2022-12-27T16:18:20.110Z,1.73
2022-12-27T16:21:06.257Z,2.07
2022-12-27T16:23:37.314Z,1.53
2022-12-27T16:26:19.623Z,1.70
2022-12-27T16:28:53.351Z,1.80
2022-12-27T16:31:22.805Z,1.80
2022-12-27T16:33:52.722Z,1.43
2022-12-27T16:36:28.420Z,1.80
2022-12-27T16:38:55.727Z,1.80
2022-12-27T16:41:42.772Z,1.57
2022-12-27T16:44:22.345Z,1.70
2022-12-27T16:47:08.668Z,1.60
2022-12-27T16:49:36.063Z,1.40
2022-12-27T16:52:22.302Z,1.47
2022-12-27T16:54:49.855Z,1.40
2022-12-27T16:57:26.427Z,1.43
2022-12-27T17:00:05.716Z,1.37
2022-12-27T17:02:42.078Z,2.03
2022-12-27T17:05:16.453Z,1.40
2022-12-27T17:07:46.899Z,2.10
2022-12-27T17:10:30.458Z,1.33
2022-12-27T17:13:00.459Z,1.83
2022-12-27T17:15:28.293Z,1.70
2022-12-27T17:17:58.671Z,1.40
2022-12-27T17:20:26.167Z,1.20
2022-12-27T17:22:57.486Z,1.20
2022-12-27T17:25:30.876Z,1.77
2022-12-27T17:28:14.738Z,1.67
2022-12-27T17:30:53.022Z,1.10
2022-12-27T17:33:24.479Z,1.23
2022-12-27T17:36:10.145Z,1.43
2022-12-27T17:38:46.518Z,1.67
2022-12-27T17:41:50.854Z,1.50
2022-12-27T17:44:39.683Z,1.53
2022-12-27T17:47:15.587Z,1.60
2022-12-27T17:49:43.500Z,1.60
2022-12-27T17:52:34.793Z,1.80
2022-12-27T17:55:34.857Z,1.57
2022-12-27T17:58:03.216Z,1.27
2022-12-27T18:00:32.428Z,1.33
2022-12-27T18:03:02.350Z,1.33
2022-12-27T18:05:31.106Z,1.10
2022-12-27T18:08:28.769Z,1.40
2022-12-27T18:10:56.961Z,1.60
2022-12-27T18:13:25.455Z,1.10
2022-12-27T18:15:53.495Z,1.40
2022-12-27T18:18:28.995Z,1.57
2022-12-27T18:20:58.154Z,1.40
2022-12-27T18:23:25.645Z,1.33
2022-12-27T18:25:58.046Z,1.30
2022-12-27T18:28:32.891Z,1.40
2022-12-27T18:31:08.805Z,1.50
2022-12-27T18:33:49.149Z,1.20
2022-12-27T18:36:23.091Z,1.00
2022-12-27T18:38:56.176Z,1.87
2022-12-27T18:41:24.386Z,1.60
2022-12-27T18:43:55.449Z,1.30
2022-12-27T18:46:26.994Z,1.67
2022-12-27T18:48:54.355Z,1.27
2022-12-27T18:51:21.785Z,1.30
2022-12-27T18:53:49.066Z,1.57
2022-12-27T18:56:16.579Z,1.43
2022-12-27T18:59:07.358Z,1.27
2022-12-27T19:01:41.462Z,1.00
2022-12-27T19:04:16.465Z,1.20
2022-12-27T19:06:49.955Z,1.13
2022-12-27T19:09:18.633Z,1.17
2022-12-27T19:11:51.702Z,1.40
2022-12-27T19:14:20.148Z,1.50
2022-12-27T19:16:55.459Z,1.10
2022-12-27T19:19:27.788Z,1.33
2022-12-27T19:21:55.281Z,1.30
2022-12-27T19:24:28.912Z,1.30
2022-12-27T19:26:57.688Z,1.20
2022-12-27T19:29:27.215Z,1.30
2022-12-27T19:31:56.773Z,1.87
2022-12-27T19:34:26.503Z,1.13
2022-12-27T19:36:55.027Z,1.17
2022-12-27T19:39:24.461Z,1.30
2022-12-27T19:41:52.367Z,1.17
2022-12-27T19:44:20.032Z,1.13
2022-12-27T19:46:47.435Z,1.40
2022-12-27T19:49:41.477Z,1.23
2022-12-27T19:52:02.174Z,1.20
2022-12-27T19:54:30.556Z,1.23
2022-12-27T19:56:57.788Z,1.23
2022-12-27T19:59:25.539Z,1.30
2022-12-27T20:01:53.588Z,1.17
2022-12-27T20:04:21.147Z,1.30
2022-12-27T20:06:49.352Z,1.20
2022-12-27T20:09:18.218Z,1.17
2022-12-27T20:11:45.723Z,1.30
2022-12-27T20:14:14.641Z,1.30
2022-12-27T20:16:42.510Z,1.40
2022-12-27T20:19:15.747Z,1.23
2022-12-27T20:21:43.351Z,1.20
2022-12-27T20:24:12.165Z,1.50
2022-12-27T20:26:39.762Z,1.60
2022-12-27T20:29:07.535Z,1.30
2022-12-27T20:31:40.461Z,1.30
2022-12-27T20:34:11.499Z,1.30
2022-12-27T20:36:38.889Z,1.27
2022-12-27T20:39:07.127Z,1.17
2022-12-27T20:41:34.656Z,1.23
2022-12-27T20:44:01.953Z,1.13
2022-12-27T20:46:29.278Z,1.10
2022-12-27T20:48:56.903Z,1.20
2022-12-27T20:51:27.201Z,1.10
2022-12-27T20:53:59.456Z,1.30
2022-12-27T20:56:27.103Z,1.60
2022-12-27T20:58:54.626Z,1.23
2022-12-27T21:01:23.439Z,1.20
2022-12-27T21:03:50.939Z,1.23
2022-12-27T21:06:20.491Z,1.67
2022-12-27T21:08:55.939Z,1.23
2022-12-27T21:11:26.772Z,1.17
2022-12-27T21:13:54.129Z,1.57
2022-12-27T21:16:26.256Z,1.20
2022-12-27T21:18:54.290Z,1.50
2022-12-27T21:21:26.735Z,1.10
2022-12-27T21:23:55.398Z,1.20
2022-12-27T21:26:24.831Z,1.10
2022-12-27T21:28:52.176Z,1.20
2022-12-27T21:31:19.671Z,1.20
2022-12-27T21:33:47.461Z,1.30
2022-12-27T21:36:16.499Z,1.20
2022-12-27T21:38:43.764Z,1.27
2022-12-27T21:41:17.368Z,1.40
2022-12-27T21:43:45.491Z,1.03
2022-12-27T21:46:20.773Z,1.17
2022-12-27T21:48:48.651Z,1.30
2022-12-27T21:51:17.402Z,1.33
2022-12-27T21:53:45.015Z,1.23
2022-12-27T21:56:13.035Z,1.33
2022-12-27T21:58:41.095Z,1.33
2022-12-27T22:01:11.291Z,1.10
2022-12-27T22:03:39.646Z,1.30
2022-12-27T22:06:17.321Z,1.30
2022-12-27T22:08:45.733Z,1.40
2022-12-27T22:11:13.612Z,1.20
2022-12-27T22:13:41.345Z,1.10
2022-12-27T22:16:12.222Z,1.37
2022-12-27T22:18:44.319Z,1.43
2022-12-27T22:21:13.515Z,1.17
2022-12-27T22:23:42.422Z,1.20
2022-12-27T22:26:11.875Z,1.30
2022-12-27T22:28:39.396Z,1.37
2022-12-27T22:31:11.157Z,1.20
2022-12-27T22:33:38.546Z,1.43
2022-12-27T22:36:06.807Z,1.30
2022-12-27T22:38:34.179Z,1.33
2022-12-27T22:41:15.105Z,1.13
2022-12-27T22:43:43.227Z,1.30
2022-12-27T22:46:12.052Z,1.23
2022-12-27T22:48:40.207Z,1.27
2022-12-27T22:51:13.608Z,1.23
2022-12-27T22:53:41.147Z,1.70
2022-12-27T22:56:37.982Z,1.13
2022-12-27T22:59:09.543Z,1.37
2022-12-27T23:01:37.225Z,0.93
2022-12-27T23:04:05.710Z,1.00
2022-12-27T23:06:34.149Z,1.30
2022-12-27T23:09:01.555Z,1.20
2022-12-27T23:11:30.555Z,1.30
2022-12-27T23:13:59.233Z,1.40
2022-12-27T23:16:26.858Z,1.23
2022-12-27T23:18:54.680Z,1.30
2022-12-27T23:21:24.543Z,1.43
2022-12-27T23:23:52.485Z,1.47
2022-12-27T23:26:21.755Z,1.40
2022-12-27T23:28:49.632Z,1.57
2022-12-27T23:31:17.055Z,1.37
2022-12-27T23:33:44.911Z,1.30
2022-12-27T23:36:13.111Z,1.43
2022-12-27T23:38:41.534Z,1.23
2022-12-27T23:41:09.538Z,1.20
2022-12-27T23:43:55.459Z,1.30
2022-12-27T23:46:25.168Z,1.47
2022-12-27T23:48:52.733Z,1.20
2022-12-27T23:51:20.363Z,1.20
2022-12-27T23:53:47.770Z,1.93
2022-12-27T23:56:16.569Z,1.60
2022-12-27T23:58:44.075Z,1.70
